sensor_id;sensor_type;location;lat;lon;timestamp;temperature;humidity
11035;DHT22;5571;48.110;-1.706;2023-03-01T00:01:16;2.70;99.90
11035;DHT22;5571;48.110;-1.706;2023-03-01T00:03:42;2.70;99.90
11035;DHT22;5571;48.110;-1.706;2023-03-01T00:06:08;2.70;99.90
11035;DHT22;5571;48.110;-1.706;2023-03-01T00:08:35;2.70;99.90
11035;DHT22;5571;48.110;-1.706;2023-03-01T00:13:27;2.60;99.90
11035;DHT22;5571;48.110;-1.706;2023-03-01T00:15:53;2.60;99.90
11035;DHT22;5571;48.110;-1.706;2023-03-01T00:18:19;2.60;99.90
11035;DHT22;5571;48.110;-1.706;2023-03-01T00:20:51;2.60;99.90
11035;DHT22;5571;48.110;-1.706;2023-03-01T00:23:18;2.60;99.90
11035;DHT22;5571;48.110;-1.706;2023-03-01T00:25:43;2.50;99.90
11035;DHT22;5571;48.110;-1.706;2023-03-01T00:28:09;2.40;99.90
11035;DHT22;5571;48.110;-1.706;2023-03-01T00:30:35;2.40;99.90
11035;DHT22;5571;48.110;-1.706;2023-03-01T00:33:00;2.40;99.90
11035;DHT22;5571;48.110;-1.706;2023-03-01T00:35:26;2.40;99.90
11035;DHT22;5571;48.110;-1.706;2023-03-01T00:37:51;2.40;99.90
11035;DHT22;5571;48.110;-1.706;2023-03-01T00:40:27;2.30;99.90
11035;DHT22;5571;48.110;-1.706;2023-03-01T00:42:53;2.40;99.90
11035;DHT22;5571;48.110;-1.706;2023-03-01T00:45:18;2.30;99.90
11035;DHT22;5571;48.110;-1.706;2023-03-01T00:47:44;2.30;99.90
11035;DHT22;5571;48.110;-1.706;2023-03-01T00:50:10;2.30;99.90
11035;DHT22;5571;48.110;-1.706;2023-03-01T00:52:36;2.20;99.90
11035;DHT22;5571;48.110;-1.706;2023-03-01T00:55:03;2.30;99.90
11035;DHT22;5571;48.110;-1.706;2023-03-01T00:57:28;2.20;99.90
11035;DHT22;5571;48.110;-1.706;2023-03-01T00:59:54;2.20;99.90
11035;DHT22;5571;48.110;-1.706;2023-03-01T01:02:20;2.20;99.90
11035;DHT22;5571;48.110;-1.706;2023-03-01T01:04:46;2.10;99.90
11035;DHT22;5571;48.110;-1.706;2023-03-01T01:07:13;2.10;99.90
11035;DHT22;5571;48.110;-1.706;2023-03-01T01:09:38;2.10;99.90
11035;DHT22;5571;48.110;-1.706;2023-03-01T01:12:05;2.10;99.90
11035;DHT22;5571;48.110;-1.706;2023-03-01T01:14:31;2.10;99.90
11035;DHT22;5571;48.110;-1.706;2023-03-01T01:16:57;2.00;99.90
11035;DHT22;5571;48.110;-1.706;2023-03-01T01:19:23;2.10;99.90
11035;DHT22;5571;48.110;-1.706;2023-03-01T01:21:48;2.00;99.90
11035;DHT22;5571;48.110;-1.706;2023-03-01T01:24:14;2.00;99.90
11035;DHT22;5571;48.110;-1.706;2023-03-01T01:26:41;1.90;99.90
11035;DHT22;5571;48.110;-1.706;2023-03-01T01:29:07;2.00;99.90
11035;DHT22;5571;48.110;-1.706;2023-03-01T01:31:35;2.00;99.90
11035;DHT22;5571;48.110;-1.706;2023-03-01T01:34:04;1.90;99.90
11035;DHT22;5571;48.110;-1.706;2023-03-01T01:36:30;1.90;99.90
11035;DHT22;5571;48.110;-1.706;2023-03-01T01:38:56;1.90;99.90
11035;DHT22;5571;48.110;-1.706;2023-03-01T01:41:24;1.90;99.90
11035;DHT22;5571;48.110;-1.706;2023-03-01T01:44:11;1.90;99.90
11035;DHT22;5571;48.110;-1.706;2023-03-01T01:47:03;1.90;99.90
11035;DHT22;5571;48.110;-1.706;2023-03-01T01:49:41;1.80;99.90
11035;DHT22;5571;48.110;-1.706;2023-03-01T01:52:16;1.90;99.90
11035;DHT22;5571;48.110;-1.706;2023-03-01T01:54:51;1.90;99.90
11035;DHT22;5571;48.110;-1.706;2023-03-01T01:57:23;1.80;99.90
11035;DHT22;5571;48.110;-1.706;2023-03-01T01:59:53;1.80;99.90
11035;DHT22;5571;48.110;-1.706;2023-03-01T02:02:20;1.80;99.90
11035;DHT22;5571;48.110;-1.706;2023-03-01T02:04:48;1.80;99.90
11035;DHT22;5571;48.110;-1.706;2023-03-01T02:07:20;1.70;99.90
11035;DHT22;5571;48.110;-1.706;2023-03-01T02:09:50;1.70;99.90
11035;DHT22;5571;48.110;-1.706;2023-03-01T02:12:20;1.70;99.90
11035;DHT22;5571;48.110;-1.706;2023-03-01T02:14:47;1.70;99.90
11035;DHT22;5571;48.110;-1.706;2023-03-01T02:17:15;1.70;99.90
11035;DHT22;5571;48.110;-1.706;2023-03-01T02:22:34;1.70;99.90
11035;DHT22;5571;48.110;-1.706;2023-03-01T02:30:21;1.60;99.90
11035;DHT22;5571;48.110;-1.706;2023-03-01T02:32:48;1.60;99.90
11035;DHT22;5571;48.110;-1.706;2023-03-01T02:35:16;1.70;99.90
11035;DHT22;5571;48.110;-1.706;2023-03-01T02:37:43;1.60;99.90
11035;DHT22;5571;48.110;-1.706;2023-03-01T02:40:13;1.70;99.90
11035;DHT22;5571;48.110;-1.706;2023-03-01T02:42:53;1.60;99.90
11035;DHT22;5571;48.110;-1.706;2023-03-01T02:45:19;1.60;99.90
11035;DHT22;5571;48.110;-1.706;2023-03-01T02:47:45;1.60;99.90
11035;DHT22;5571;48.110;-1.706;2023-03-01T02:50:31;1.50;99.90
11035;DHT22;5571;48.110;-1.706;2023-03-01T02:55:32;1.60;99.90
11035;DHT22;5571;48.110;-1.706;2023-03-01T02:57:59;1.60;99.90
11035;DHT22;5571;48.110;-1.706;2023-03-01T03:00:35;1.50;99.90
11035;DHT22;5571;48.110;-1.706;2023-03-01T03:03:05;1.50;99.90
11035;DHT22;5571;48.110;-1.706;2023-03-01T03:05:31;1.50;99.90
11035;DHT22;5571;48.110;-1.706;2023-03-01T03:08:00;1.50;99.90
11035;DHT22;5571;48.110;-1.706;2023-03-01T03:10:38;1.50;99.90
11035;DHT22;5571;48.110;-1.706;2023-03-01T03:13:10;1.50;99.90
11035;DHT22;5571;48.110;-1.706;2023-03-01T03:15:37;1.40;99.90
11035;DHT22;5571;48.110;-1.706;2023-03-01T03:18:05;1.40;99.90
11035;DHT22;5571;48.110;-1.706;2023-03-01T03:20:32;1.40;99.90
11035;DHT22;5571;48.110;-1.706;2023-03-01T03:22:58;1.50;99.90
11035;DHT22;5571;48.110;-1.706;2023-03-01T03:25:25;1.50;99.90
11035;DHT22;5571;48.110;-1.706;2023-03-01T03:27:52;1.50;99.90
11035;DHT22;5571;48.110;-1.706;2023-03-01T03:30:30;1.40;99.90
11035;DHT22;5571;48.110;-1.706;2023-03-01T03:32:57;1.40;99.90
11035;DHT22;5571;48.110;-1.706;2023-03-01T03:35:30;1.40;99.90
11035;DHT22;5571;48.110;-1.706;2023-03-01T03:38:01;1.40;99.90
11035;DHT22;5571;48.110;-1.706;2023-03-01T03:40:34;1.30;99.90
11035;DHT22;5571;48.110;-1.706;2023-03-01T03:43:05;1.40;99.90
11035;DHT22;5571;48.110;-1.706;2023-03-01T03:45:32;1.30;99.90
11035;DHT22;5571;48.110;-1.706;2023-03-01T03:47:59;1.30;99.90
11035;DHT22;5571;48.110;-1.706;2023-03-01T03:50:25;1.40;99.90
11035;DHT22;5571;48.110;-1.706;2023-03-01T03:52:51;1.30;99.90
11035;DHT22;5571;48.110;-1.706;2023-03-01T03:55:16;1.30;99.90
11035;DHT22;5571;48.110;-1.706;2023-03-01T03:57:45;1.30;99.90
11035;DHT22;5571;48.110;-1.706;2023-03-01T04:00:19;1.30;99.90
11035;DHT22;5571;48.110;-1.706;2023-03-01T04:02:46;1.30;99.90
11035;DHT22;5571;48.110;-1.706;2023-03-01T04:05:14;1.30;99.90
11035;DHT22;5571;48.110;-1.706;2023-03-01T04:07:41;1.20;99.90
11035;DHT22;5571;48.110;-1.706;2023-03-01T04:10:10;1.20;99.90
11035;DHT22;5571;48.110;-1.706;2023-03-01T04:12:36;1.20;99.90
11035;DHT22;5571;48.110;-1.706;2023-03-01T04:15:03;1.10;99.90
11035;DHT22;5571;48.110;-1.706;2023-03-01T04:17:50;1.20;99.90
11035;DHT22;5571;48.110;-1.706;2023-03-01T04:20:19;1.10;99.90
11035;DHT22;5571;48.110;-1.706;2023-03-01T04:23:00;1.10;99.90
11035;DHT22;5571;48.110;-1.706;2023-03-01T04:25:41;1.10;99.90
11035;DHT22;5571;48.110;-1.706;2023-03-01T04:28:08;1.20;99.90
11035;DHT22;5571;48.110;-1.706;2023-03-01T04:30:35;1.20;99.90
11035;DHT22;5571;48.110;-1.706;2023-03-01T04:33:10;1.10;99.90
11035;DHT22;5571;48.110;-1.706;2023-03-01T04:35:37;1.20;99.90
11035;DHT22;5571;48.110;-1.706;2023-03-01T04:38:04;1.20;99.90
11035;DHT22;5571;48.110;-1.706;2023-03-01T04:40:29;1.10;99.90
11035;DHT22;5571;48.110;-1.706;2023-03-01T04:42:55;1.10;99.90
11035;DHT22;5571;48.110;-1.706;2023-03-01T04:45:21;1.10;99.90
11035;DHT22;5571;48.110;-1.706;2023-03-01T04:47:47;1.10;99.90
11035;DHT22;5571;48.110;-1.706;2023-03-01T04:50:15;1.10;99.90
11035;DHT22;5571;48.110;-1.706;2023-03-01T04:52:42;1.10;99.90
11035;DHT22;5571;48.110;-1.706;2023-03-01T04:55:08;1.00;99.90
11035;DHT22;5571;48.110;-1.706;2023-03-01T04:57:33;1.10;99.90
11035;DHT22;5571;48.110;-1.706;2023-03-01T04:59:59;1.00;99.90
11035;DHT22;5571;48.110;-1.706;2023-03-01T05:02:25;1.00;99.90
11035;DHT22;5571;48.110;-1.706;2023-03-01T05:04:50;1.10;99.90
11035;DHT22;5571;48.110;-1.706;2023-03-01T05:07:16;1.00;99.90
11035;DHT22;5571;48.110;-1.706;2023-03-01T05:09:48;1.10;99.90
11035;DHT22;5571;48.110;-1.706;2023-03-01T05:12:14;1.00;99.90
11035;DHT22;5571;48.110;-1.706;2023-03-01T05:14:41;1.00;99.90
11035;DHT22;5571;48.110;-1.706;2023-03-01T05:17:07;1.00;99.90
11035;DHT22;5571;48.110;-1.706;2023-03-01T05:19:33;0.90;99.90
11035;DHT22;5571;48.110;-1.706;2023-03-01T05:21:59;1.00;99.90
11035;DHT22;5571;48.110;-1.706;2023-03-01T05:24:31;1.00;99.90
11035;DHT22;5571;48.110;-1.706;2023-03-01T05:26:57;1.00;99.90
11035;DHT22;5571;48.110;-1.706;2023-03-01T05:29:24;1.00;99.90
11035;DHT22;5571;48.110;-1.706;2023-03-01T05:31:54;1.00;99.90
11035;DHT22;5571;48.110;-1.706;2023-03-01T05:34:38;1.10;99.90
11035;DHT22;5571;48.110;-1.706;2023-03-01T05:37:04;1.00;99.90
11035;DHT22;5571;48.110;-1.706;2023-03-01T05:39:30;1.00;99.90
11035;DHT22;5571;48.110;-1.706;2023-03-01T05:41:58;1.00;99.90
11035;DHT22;5571;48.110;-1.706;2023-03-01T05:44:25;1.00;99.90
11035;DHT22;5571;48.110;-1.706;2023-03-01T05:46:51;1.00;99.90
11035;DHT22;5571;48.110;-1.706;2023-03-01T05:49:18;1.00;99.90
11035;DHT22;5571;48.110;-1.706;2023-03-01T05:51:47;1.10;99.90
11035;DHT22;5571;48.110;-1.706;2023-03-01T05:54:14;1.00;99.90
11035;DHT22;5571;48.110;-1.706;2023-03-01T05:56:39;1.00;99.90
11035;DHT22;5571;48.110;-1.706;2023-03-01T05:59:05;1.00;99.90
11035;DHT22;5571;48.110;-1.706;2023-03-01T06:01:35;1.00;99.90
11035;DHT22;5571;48.110;-1.706;2023-03-01T06:04:01;1.00;99.90
11035;DHT22;5571;48.110;-1.706;2023-03-01T06:06:27;1.00;99.90
11035;DHT22;5571;48.110;-1.706;2023-03-01T06:08:53;1.00;99.90
11035;DHT22;5571;48.110;-1.706;2023-03-01T06:11:19;1.00;99.90
11035;DHT22;5571;48.110;-1.706;2023-03-01T06:13:46;1.00;99.90
11035;DHT22;5571;48.110;-1.706;2023-03-01T06:16:12;1.00;99.90
11035;DHT22;5571;48.110;-1.706;2023-03-01T06:18:38;1.00;99.90
11035;DHT22;5571;48.110;-1.706;2023-03-01T06:21:05;1.00;99.90
11035;DHT22;5571;48.110;-1.706;2023-03-01T06:23:31;1.10;99.90
11035;DHT22;5571;48.110;-1.706;2023-03-01T06:25:57;1.00;99.90
11035;DHT22;5571;48.110;-1.706;2023-03-01T06:28:23;1.00;99.90
11035;DHT22;5571;48.110;-1.706;2023-03-01T06:30:50;1.00;99.90
11035;DHT22;5571;48.110;-1.706;2023-03-01T06:33:15;1.10;99.90
11035;DHT22;5571;48.110;-1.706;2023-03-01T06:35:41;1.00;99.90
11035;DHT22;5571;48.110;-1.706;2023-03-01T06:38:07;1.10;99.90
11035;DHT22;5571;48.110;-1.706;2023-03-01T06:40:32;1.00;99.90
11035;DHT22;5571;48.110;-1.706;2023-03-01T06:43:01;1.10;99.90
11035;DHT22;5571;48.110;-1.706;2023-03-01T06:45:26;1.00;99.90
11035;DHT22;5571;48.110;-1.706;2023-03-01T06:47:52;1.00;99.90
11035;DHT22;5571;48.110;-1.706;2023-03-01T06:50:18;1.00;99.90
11035;DHT22;5571;48.110;-1.706;2023-03-01T06:52:44;1.00;99.90
11035;DHT22;5571;48.110;-1.706;2023-03-01T06:55:11;1.00;99.90
11035;DHT22;5571;48.110;-1.706;2023-03-01T06:57:37;0.90;99.90
11035;DHT22;5571;48.110;-1.706;2023-03-01T07:00:06;1.00;99.90
11035;DHT22;5571;48.110;-1.706;2023-03-01T07:02:32;1.00;99.90
11035;DHT22;5571;48.110;-1.706;2023-03-01T07:04:58;1.00;99.90
11035;DHT22;5571;48.110;-1.706;2023-03-01T07:07:23;1.00;99.90
11035;DHT22;5571;48.110;-1.706;2023-03-01T07:09:49;1.00;99.90
11035;DHT22;5571;48.110;-1.706;2023-03-01T07:12:15;1.00;99.90
11035;DHT22;5571;48.110;-1.706;2023-03-01T07:14:41;0.90;99.90
11035;DHT22;5571;48.110;-1.706;2023-03-01T07:17:08;1.00;99.90
11035;DHT22;5571;48.110;-1.706;2023-03-01T07:19:34;1.00;99.90
11035;DHT22;5571;48.110;-1.706;2023-03-01T07:22:00;1.10;99.90
11035;DHT22;5571;48.110;-1.706;2023-03-01T07:24:25;1.10;99.90
11035;DHT22;5571;48.110;-1.706;2023-03-01T07:26:51;1.10;99.90
11035;DHT22;5571;48.110;-1.706;2023-03-01T07:29:17;1.10;99.90
11035;DHT22;5571;48.110;-1.706;2023-03-01T07:31:43;1.10;99.90
11035;DHT22;5571;48.110;-1.706;2023-03-01T07:34:09;1.10;99.90
11035;DHT22;5571;48.110;-1.706;2023-03-01T07:36:36;1.20;99.90
11035;DHT22;5571;48.110;-1.706;2023-03-01T07:39:02;1.10;99.90
11035;DHT22;5571;48.110;-1.706;2023-03-01T07:41:29;1.20;99.90
11035;DHT22;5571;48.110;-1.706;2023-03-01T07:43:55;1.20;99.90
11035;DHT22;5571;48.110;-1.706;2023-03-01T07:46:20;1.20;99.90
11035;DHT22;5571;48.110;-1.706;2023-03-01T07:48:46;1.20;99.90
11035;DHT22;5571;48.110;-1.706;2023-03-01T07:51:12;1.30;99.90
11035;DHT22;5571;48.110;-1.706;2023-03-01T07:53:38;1.30;99.90
11035;DHT22;5571;48.110;-1.706;2023-03-01T07:56:05;1.40;99.90
11035;DHT22;5571;48.110;-1.706;2023-03-01T07:58:34;1.50;99.90
11035;DHT22;5571;48.110;-1.706;2023-03-01T08:01:04;1.50;99.90
11035;DHT22;5571;48.110;-1.706;2023-03-01T08:03:30;1.50;99.90
11035;DHT22;5571;48.110;-1.706;2023-03-01T08:05:55;1.60;99.90
11035;DHT22;5571;48.110;-1.706;2023-03-01T08:08:21;1.70;99.90
11035;DHT22;5571;48.110;-1.706;2023-03-01T08:10:48;1.70;99.90
11035;DHT22;5571;48.110;-1.706;2023-03-01T08:13:14;1.70;99.90
11035;DHT22;5571;48.110;-1.706;2023-03-01T08:15:40;1.80;99.90
11035;DHT22;5571;48.110;-1.706;2023-03-01T08:18:05;1.80;99.90
11035;DHT22;5571;48.110;-1.706;2023-03-01T08:20:31;1.80;99.90
11035;DHT22;5571;48.110;-1.706;2023-03-01T08:22:58;1.90;99.90
11035;DHT22;5571;48.110;-1.706;2023-03-01T08:25:23;1.90;99.90
11035;DHT22;5571;48.110;-1.706;2023-03-01T08:27:49;1.90;99.90
11035;DHT22;5571;48.110;-1.706;2023-03-01T08:30:15;2.00;99.90
11035;DHT22;5571;48.110;-1.706;2023-03-01T08:32:40;2.10;99.90
11035;DHT22;5571;48.110;-1.706;2023-03-01T08:35:06;2.10;99.90
11035;DHT22;5571;48.110;-1.706;2023-03-01T08:37:32;2.20;99.90
11035;DHT22;5571;48.110;-1.706;2023-03-01T08:39:59;2.20;99.90
11035;DHT22;5571;48.110;-1.706;2023-03-01T08:42:25;2.30;99.90
11035;DHT22;5571;48.110;-1.706;2023-03-01T08:44:51;2.30;99.90
11035;DHT22;5571;48.110;-1.706;2023-03-01T08:47:17;2.40;99.90
11035;DHT22;5571;48.110;-1.706;2023-03-01T08:49:42;2.50;99.90
11035;DHT22;5571;48.110;-1.706;2023-03-01T08:52:08;2.50;99.90
11035;DHT22;5571;48.110;-1.706;2023-03-01T08:54:33;2.60;99.90
11035;DHT22;5571;48.110;-1.706;2023-03-01T08:57:02;2.60;99.90
11035;DHT22;5571;48.110;-1.706;2023-03-01T08:59:27;2.70;99.90
11035;DHT22;5571;48.110;-1.706;2023-03-01T09:01:54;2.70;99.90
11035;DHT22;5571;48.110;-1.706;2023-03-01T09:04:20;2.80;99.90
11035;DHT22;5571;48.110;-1.706;2023-03-01T09:06:46;2.90;99.90
11035;DHT22;5571;48.110;-1.706;2023-03-01T09:09:16;2.90;99.90
11035;DHT22;5571;48.110;-1.706;2023-03-01T09:11:43;3.00;99.90
11035;DHT22;5571;48.110;-1.706;2023-03-01T09:14:09;3.00;99.90
11035;DHT22;5571;48.110;-1.706;2023-03-01T09:16:35;3.00;99.90
11035;DHT22;5571;48.110;-1.706;2023-03-01T09:19:02;3.10;99.90
11035;DHT22;5571;48.110;-1.706;2023-03-01T09:21:28;3.20;99.90
11035;DHT22;5571;48.110;-1.706;2023-03-01T09:23:55;3.30;99.90
11035;DHT22;5571;48.110;-1.706;2023-03-01T09:26:22;3.40;99.90
11035;DHT22;5571;48.110;-1.706;2023-03-01T09:28:50;3.40;99.90
11035;DHT22;5571;48.110;-1.706;2023-03-01T09:31:18;3.50;99.90
11035;DHT22;5571;48.110;-1.706;2023-03-01T09:33:47;3.60;99.90
11035;DHT22;5571;48.110;-1.706;2023-03-01T09:36:15;3.70;99.90
11035;DHT22;5571;48.110;-1.706;2023-03-01T09:38:41;3.80;99.90
11035;DHT22;5571;48.110;-1.706;2023-03-01T09:46:47;4.00;99.90
11035;DHT22;5571;48.110;-1.706;2023-03-01T09:49:25;4.10;99.90
11035;DHT22;5571;48.110;-1.706;2023-03-01T09:52:03;4.20;99.90
11035;DHT22;5571;48.110;-1.706;2023-03-01T09:54:31;4.30;99.90
11035;DHT22;5571;48.110;-1.706;2023-03-01T09:57:20;4.40;99.90
11035;DHT22;5571;48.110;-1.706;2023-03-01T10:02:58;4.70;99.90
11035;DHT22;5571;48.110;-1.706;2023-03-01T10:05:41;4.80;99.90
11035;DHT22;5571;48.110;-1.706;2023-03-01T10:08:34;5.00;99.90
11035;DHT22;5571;48.110;-1.706;2023-03-01T10:11:04;5.10;99.90
11035;DHT22;5571;48.110;-1.706;2023-03-01T10:13:50;5.20;99.90
11035;DHT22;5571;48.110;-1.706;2023-03-01T10:19:09;5.40;99.90
11035;DHT22;5571;48.110;-1.706;2023-03-01T10:21:41;5.40;99.90
11035;DHT22;5571;48.110;-1.706;2023-03-01T10:24:12;5.60;99.90
11035;DHT22;5571;48.110;-1.706;2023-03-01T10:29:11;5.60;99.90
11035;DHT22;5571;48.110;-1.706;2023-03-01T10:31:38;5.70;99.90
11035;DHT22;5571;48.110;-1.706;2023-03-01T10:34:17;5.80;99.90
11035;DHT22;5571;48.110;-1.706;2023-03-01T10:36:45;6.00;99.90
11035;DHT22;5571;48.110;-1.706;2023-03-01T10:39:18;6.00;99.90
11035;DHT22;5571;48.110;-1.706;2023-03-01T10:42:02;6.20;99.90
11035;DHT22;5571;48.110;-1.706;2023-03-01T10:44:41;6.20;99.90
11035;DHT22;5571;48.110;-1.706;2023-03-01T10:47:17;6.20;99.90
11035;DHT22;5571;48.110;-1.706;2023-03-01T10:49:59;6.30;99.90
11035;DHT22;5571;48.110;-1.706;2023-03-01T10:52:36;6.50;99.90
11035;DHT22;5571;48.110;-1.706;2023-03-01T10:55:22;6.60;99.90
11035;DHT22;5571;48.110;-1.706;2023-03-01T10:57:49;6.70;99.90
11035;DHT22;5571;48.110;-1.706;2023-03-01T11:00:20;6.90;99.90
11035;DHT22;5571;48.110;-1.706;2023-03-01T11:02:50;6.90;99.90
11035;DHT22;5571;48.110;-1.706;2023-03-01T11:05:20;7.10;99.90
11035;DHT22;5571;48.110;-1.706;2023-03-01T11:07:54;7.10;99.90
11035;DHT22;5571;48.110;-1.706;2023-03-01T11:10:31;7.20;99.90
11035;DHT22;5571;48.110;-1.706;2023-03-01T11:13:29;7.20;99.90
11035;DHT22;5571;48.110;-1.706;2023-03-01T11:16:05;7.20;99.90
11035;DHT22;5571;48.110;-1.706;2023-03-01T11:18:32;7.30;99.90
11035;DHT22;5571;48.110;-1.706;2023-03-01T11:20:59;7.50;99.90
11035;DHT22;5571;48.110;-1.706;2023-03-01T11:23:29;7.60;99.90
11035;DHT22;5571;48.110;-1.706;2023-03-01T11:25:58;7.70;99.90
11035;DHT22;5571;48.110;-1.706;2023-03-01T11:28:27;8.00;99.90
11035;DHT22;5571;48.110;-1.706;2023-03-01T11:31:03;8.20;99.90
11035;DHT22;5571;48.110;-1.706;2023-03-01T11:42:00;8.70;99.90
11035;DHT22;5571;48.110;-1.706;2023-03-01T11:44:28;8.80;99.90
11035;DHT22;5571;48.110;-1.706;2023-03-01T11:47:12;8.90;99.90
11035;DHT22;5571;48.110;-1.706;2023-03-01T11:55:43;8.90;99.90
11035;DHT22;5571;48.110;-1.706;2023-03-01T11:58:27;9.10;99.90
11035;DHT22;5571;48.110;-1.706;2023-03-01T12:06:24;9.50;99.90
11035;DHT22;5571;48.110;-1.706;2023-03-01T12:11:48;9.60;99.90
11035;DHT22;5571;48.110;-1.706;2023-03-01T12:20:07;9.80;99.90
11035;DHT22;5571;48.110;-1.706;2023-03-01T12:25:18;9.90;99.90
11035;DHT22;5571;48.110;-1.706;2023-03-01T12:28:08;9.80;99.80
11035;DHT22;5571;48.110;-1.706;2023-03-01T12:47:11;10.10;98.10
11035;DHT22;5571;48.110;-1.706;2023-03-01T12:49:47;10.00;98.20
11035;DHT22;5571;48.110;-1.706;2023-03-01T12:52:19;9.90;98.30
11035;DHT22;5571;48.110;-1.706;2023-03-01T12:54:48;10.00;98.50
11035;DHT22;5571;48.110;-1.706;2023-03-01T12:57:21;10.00;98.10
11035;DHT22;5571;48.110;-1.706;2023-03-01T13:00:10;10.20;98.40
11035;DHT22;5571;48.110;-1.706;2023-03-01T13:02:58;10.40;98.40
11035;DHT22;5571;48.110;-1.706;2023-03-01T13:08:42;10.50;96.90
11035;DHT22;5571;48.110;-1.706;2023-03-01T13:11:20;10.30;97.00
11035;DHT22;5571;48.110;-1.706;2023-03-01T13:13:46;10.50;97.50
11035;DHT22;5571;48.110;-1.706;2023-03-01T13:19:18;10.70;97.00
11035;DHT22;5571;48.110;-1.706;2023-03-01T13:21:46;10.40;96.50
11035;DHT22;5571;48.110;-1.706;2023-03-01T13:24:37;10.30;96.40
11035;DHT22;5571;48.110;-1.706;2023-03-01T13:29:52;10.50;97.30
11035;DHT22;5571;48.110;-1.706;2023-03-01T13:32:24;10.70;97.50
11035;DHT22;5571;48.110;-1.706;2023-03-01T13:34:58;11.00;96.80
11035;DHT22;5571;48.110;-1.706;2023-03-01T13:37:35;11.30;96.50
11035;DHT22;5571;48.110;-1.706;2023-03-01T13:42:48;11.70;95.60
11035;DHT22;5571;48.110;-1.706;2023-03-01T13:45:36;11.80;95.30
11035;DHT22;5571;48.110;-1.706;2023-03-01T13:48:18;12.00;95.40
11035;DHT22;5571;48.110;-1.706;2023-03-01T13:51:05;11.80;95.30
11035;DHT22;5571;48.110;-1.706;2023-03-01T13:53:35;11.70;95.50
11035;DHT22;5571;48.110;-1.706;2023-03-01T13:58:43;11.70;95.80
11035;DHT22;5571;48.110;-1.706;2023-03-01T14:01:30;11.70;95.60
11035;DHT22;5571;48.110;-1.706;2023-03-01T14:03:56;11.70;95.60
11035;DHT22;5571;48.110;-1.706;2023-03-01T14:06:28;12.00;96.20
11035;DHT22;5571;48.110;-1.706;2023-03-01T14:09:09;12.00;96.40
11035;DHT22;5571;48.110;-1.706;2023-03-01T14:14:24;12.10;95.80
11035;DHT22;5571;48.110;-1.706;2023-03-01T14:19:36;12.10;96.00
11035;DHT22;5571;48.110;-1.706;2023-03-01T14:22:22;12.10;95.80
11035;DHT22;5571;48.110;-1.706;2023-03-01T14:24:57;12.30;95.50
11035;DHT22;5571;48.110;-1.706;2023-03-01T14:27:28;12.10;95.50
11035;DHT22;5571;48.110;-1.706;2023-03-01T14:29:57;11.90;95.60
11035;DHT22;5571;48.110;-1.706;2023-03-01T14:32:30;12.00;95.50
11035;DHT22;5571;48.110;-1.706;2023-03-01T14:34:57;12.10;96.00
11035;DHT22;5571;48.110;-1.706;2023-03-01T14:37:34;12.20;95.10
11035;DHT22;5571;48.110;-1.706;2023-03-01T14:40:01;12.30;94.80
11035;DHT22;5571;48.110;-1.706;2023-03-01T14:42:36;12.40;94.60
11035;DHT22;5571;48.110;-1.706;2023-03-01T14:45:04;12.10;94.40
11035;DHT22;5571;48.110;-1.706;2023-03-01T14:47:35;12.00;94.70
11035;DHT22;5571;48.110;-1.706;2023-03-01T14:50:34;12.00;94.70
11035;DHT22;5571;48.110;-1.706;2023-03-01T14:53:02;11.90;95.00
11035;DHT22;5571;48.110;-1.706;2023-03-01T14:55:33;11.50;95.50
11035;DHT22;5571;48.110;-1.706;2023-03-01T14:58:02;11.40;96.40
11035;DHT22;5571;48.110;-1.706;2023-03-01T15:00:29;11.10;96.40
11035;DHT22;5571;48.110;-1.706;2023-03-01T15:02:58;11.10;96.80
11035;DHT22;5571;48.110;-1.706;2023-03-01T15:05:31;11.30;97.00
11035;DHT22;5571;48.110;-1.706;2023-03-01T15:07:59;11.10;97.00
11035;DHT22;5571;48.110;-1.706;2023-03-01T15:10:29;10.90;97.10
11035;DHT22;5571;48.110;-1.706;2023-03-01T15:12:55;10.80;97.30
11035;DHT22;5571;48.110;-1.706;2023-03-01T15:17:56;10.60;97.90
11035;DHT22;5571;48.110;-1.706;2023-03-01T15:20:25;10.60;98.10
11035;DHT22;5571;48.110;-1.706;2023-03-01T15:22:53;10.80;98.10
11035;DHT22;5571;48.110;-1.706;2023-03-01T15:25:27;10.90;98.40
11035;DHT22;5571;48.110;-1.706;2023-03-01T15:27:55;11.10;98.20
11035;DHT22;5571;48.110;-1.706;2023-03-01T15:30:35;11.30;98.00
11035;DHT22;5571;48.110;-1.706;2023-03-01T15:36:00;11.50;97.40
11035;DHT22;5571;48.110;-1.706;2023-03-01T15:38:36;11.50;97.40
11035;DHT22;5571;48.110;-1.706;2023-03-01T15:41:47;11.40;97.70
11035;DHT22;5571;48.110;-1.706;2023-03-01T15:44:23;11.50;97.80
11035;DHT22;5571;48.110;-1.706;2023-03-01T15:46:50;11.60;97.60
11035;DHT22;5571;48.110;-1.706;2023-03-01T15:49:39;11.60;97.60
11035;DHT22;5571;48.110;-1.706;2023-03-01T15:52:11;11.40;97.70
11035;DHT22;5571;48.110;-1.706;2023-03-01T15:54:39;11.50;97.80
11035;DHT22;5571;48.110;-1.706;2023-03-01T15:57:12;11.40;97.90
11035;DHT22;5571;48.110;-1.706;2023-03-01T15:59:38;11.30;98.10
11035;DHT22;5571;48.110;-1.706;2023-03-01T16:02:11;11.10;98.40
11035;DHT22;5571;48.110;-1.706;2023-03-01T16:04:40;10.90;98.90
11035;DHT22;5571;48.110;-1.706;2023-03-01T16:07:06;10.90;99.20
11035;DHT22;5571;48.110;-1.706;2023-03-01T16:09:31;10.70;99.60
11035;DHT22;5571;48.110;-1.706;2023-03-01T16:11:57;10.60;99.80
11035;DHT22;5571;48.110;-1.706;2023-03-01T16:14:23;10.60;99.90
11035;DHT22;5571;48.110;-1.706;2023-03-01T16:16:49;10.40;99.90
11035;DHT22;5571;48.110;-1.706;2023-03-01T16:19:15;10.30;99.90
11035;DHT22;5571;48.110;-1.706;2023-03-01T16:21:41;10.00;99.90
11035;DHT22;5571;48.110;-1.706;2023-03-01T16:24:08;9.80;99.90
11035;DHT22;5571;48.110;-1.706;2023-03-01T16:26:35;9.70;99.90
11035;DHT22;5571;48.110;-1.706;2023-03-01T16:29:01;9.50;99.90
11035;DHT22;5571;48.110;-1.706;2023-03-01T16:31:27;9.40;99.90
11035;DHT22;5571;48.110;-1.706;2023-03-01T16:33:55;9.20;99.90
11035;DHT22;5571;48.110;-1.706;2023-03-01T16:36:21;9.10;99.90
11035;DHT22;5571;48.110;-1.706;2023-03-01T16:38:50;9.10;99.90
11035;DHT22;5571;48.110;-1.706;2023-03-01T16:41:17;8.90;99.90
11035;DHT22;5571;48.110;-1.706;2023-03-01T16:43:43;8.70;99.90
11035;DHT22;5571;48.110;-1.706;2023-03-01T16:46:14;8.60;99.90
11035;DHT22;5571;48.110;-1.706;2023-03-01T16:48:40;8.40;99.90
11035;DHT22;5571;48.110;-1.706;2023-03-01T16:51:06;8.30;99.90
11035;DHT22;5571;48.110;-1.706;2023-03-01T16:53:35;8.30;99.90
11035;DHT22;5571;48.110;-1.706;2023-03-01T16:56:03;8.20;99.90
11035;DHT22;5571;48.110;-1.706;2023-03-01T16:58:30;8.10;99.90
11035;DHT22;5571;48.110;-1.706;2023-03-01T17:00:56;8.10;99.90
11035;DHT22;5571;48.110;-1.706;2023-03-01T17:03:25;8.00;99.90
11035;DHT22;5571;48.110;-1.706;2023-03-01T17:05:51;8.00;99.90
11035;DHT22;5571;48.110;-1.706;2023-03-01T17:08:17;7.90;99.90
11035;DHT22;5571;48.110;-1.706;2023-03-01T17:10:43;7.80;99.90
11035;DHT22;5571;48.110;-1.706;2023-03-01T17:13:09;7.70;99.90
11035;DHT22;5571;48.110;-1.706;2023-03-01T17:15:38;7.60;99.90
11035;DHT22;5571;48.110;-1.706;2023-03-01T17:18:04;7.50;99.90
11035;DHT22;5571;48.110;-1.706;2023-03-01T17:20:30;7.40;99.90
11035;DHT22;5571;48.110;-1.706;2023-03-01T17:22:56;7.30;99.90
11035;DHT22;5571;48.110;-1.706;2023-03-01T17:25:21;7.20;99.90
11035;DHT22;5571;48.110;-1.706;2023-03-01T17:27:47;7.10;99.90
11035;DHT22;5571;48.110;-1.706;2023-03-01T17:30:14;7.20;99.90
11035;DHT22;5571;48.110;-1.706;2023-03-01T17:32:40;7.10;99.90
11035;DHT22;5571;48.110;-1.706;2023-03-01T17:35:06;7.00;99.90
11035;DHT22;5571;48.110;-1.706;2023-03-01T17:37:32;7.00;99.90